sensor_id;sensor_type;location;lat;lon;timestamp;pressure;altitude;pressure_sealevel;temperature;humidity
53900;BME280;40509;32.858;-116.858;2023-05-11T00:00:43;98077.38;;;21.37;47.16
53900;BME280;40509;32.858;-116.858;2023-05-11T00:03:10;98080.97;;;21.36;47.24
53900;BME280;40509;32.858;-116.858;2023-05-11T00:05:37;98077.69;;;21.34;47.35
53900;BME280;40509;32.858;-116.858;2023-05-11T00:08:05;98076.56;;;21.37;47.36
53900;BME280;40509;32.858;-116.858;2023-05-11T00:10:32;98081.97;;;21.35;47.36
53900;BME280;40509;32.858;-116.858;2023-05-11T00:12:59;98081.81;;;21.37;47.70
53900;BME280;40509;32.858;-116.858;2023-05-11T00:15:27;98089.56;;;21.38;47.39
53900;BME280;40509;32.858;-116.858;2023-05-11T00:17:54;98093.00;;;21.39;47.37
53900;BME280;40509;32.858;-116.858;2023-05-11T00:20:21;98088.44;;;21.41;47.39
53900;BME280;40509;32.858;-116.858;2023-05-11T00:22:49;98086.63;;;21.42;47.30
53900;BME280;40509;32.858;-116.858;2023-05-11T00:25:16;98090.91;;;21.43;47.30
53900;BME280;40509;32.858;-116.858;2023-05-11T00:27:43;98091.72;;;21.43;47.42
53900;BME280;40509;32.858;-116.858;2023-05-11T00:30:12;98089.09;;;21.43;47.39
53900;BME280;40509;32.858;-116.858;2023-05-11T00:32:41;98089.09;;;21.43;47.24
53900;BME280;40509;32.858;-116.858;2023-05-11T00:35:12;98084.53;;;21.45;47.38
53900;BME280;40509;32.858;-116.858;2023-05-11T00:37:40;98085.66;;;21.43;47.54
53900;BME280;40509;32.858;-116.858;2023-05-11T00:40:07;98093.38;;;21.44;47.39
53900;BME280;40509;32.858;-116.858;2023-05-11T00:42:35;98094.22;;;21.45;47.40
53900;BME280;40509;32.858;-116.858;2023-05-11T00:45:02;98095.84;;;21.46;47.47
53900;BME280;40509;32.858;-116.858;2023-05-11T00:47:30;98099.03;;;21.49;47.44
53900;BME280;40509;32.858;-116.858;2023-05-11T00:49:57;98090.19;;;21.50;47.15
53900;BME280;40509;32.858;-116.858;2023-05-11T00:52:25;98094.88;;;21.47;47.67
53900;BME280;40509;32.858;-116.858;2023-05-11T00:54:52;98098.06;;;21.50;47.28
53900;BME280;40509;32.858;-116.858;2023-05-11T00:57:20;98091.44;;;21.46;47.32
53900;BME280;40509;32.858;-116.858;2023-05-11T00:59:48;98096.97;;;21.43;47.54
53900;BME280;40509;32.858;-116.858;2023-05-11T01:02:16;98100.00;;;21.48;47.35
53900;BME280;40509;32.858;-116.858;2023-05-11T01:04:44;98105.25;;;21.48;47.33
53900;BME280;40509;32.858;-116.858;2023-05-11T01:07:18;98107.06;;;21.48;47.52
53900;BME280;40509;32.858;-116.858;2023-05-11T01:13:01;98121.84;;;21.49;47.41
53900;BME280;40509;32.858;-116.858;2023-05-11T01:15:33;98121.84;;;21.49;47.50
53900;BME280;40509;32.858;-116.858;2023-05-11T01:18:19;98123.78;;;21.47;47.65
53900;BME280;40509;32.858;-116.858;2023-05-11T01:20:52;98129.59;;;21.50;47.57
53900;BME280;40509;32.858;-116.858;2023-05-11T01:26:48;98126.41;;;21.47;47.73
53900;BME280;40509;32.858;-116.858;2023-05-11T01:29:51;98134.03;;;21.40;48.08
53900;BME280;40509;32.858;-116.858;2023-05-11T01:32:28;98142.31;;;21.45;47.60
53900;BME280;40509;32.858;-116.858;2023-05-11T01:35:05;98137.22;;;21.44;47.61
53900;BME280;40509;32.858;-116.858;2023-05-11T01:37:34;98143.59;;;21.41;47.92
53900;BME280;40509;32.858;-116.858;2023-05-11T01:40:07;98141.50;;;21.45;47.68
53900;BME280;40509;32.858;-116.858;2023-05-11T01:42:42;98145.09;;;21.44;47.72
53900;BME280;40509;32.858;-116.858;2023-05-11T01:45:12;98147.88;;;21.42;47.90
53900;BME280;40509;32.858;-116.858;2023-05-11T01:47:42;98155.59;;;21.44;48.14
53900;BME280;40509;32.858;-116.858;2023-05-11T01:50:12;98152.53;;;21.48;47.81
53900;BME280;40509;32.858;-116.858;2023-05-11T01:52:41;98156.19;;;21.28;48.49
53900;BME280;40509;32.858;-116.858;2023-05-11T01:55:09;98162.69;;;21.33;48.49
53900;BME280;40509;32.858;-116.858;2023-05-11T01:57:38;98165.81;;;21.47;48.25
53900;BME280;40509;32.858;-116.858;2023-05-11T02:00:07;98168.19;;;21.40;48.31
53900;BME280;40509;32.858;-116.858;2023-05-11T02:02:42;98169.69;;;21.43;48.26
53900;BME280;40509;32.858;-116.858;2023-05-11T02:05:19;98180.66;;;21.38;48.56
53900;BME280;40509;32.858;-116.858;2023-05-11T02:07:50;98174.13;;;21.42;48.53
53900;BME280;40509;32.858;-116.858;2023-05-11T02:10:19;98182.16;;;21.41;48.81
53900;BME280;40509;32.858;-116.858;2023-05-11T02:12:48;98187.94;;;21.44;48.36
53900;BME280;40509;32.858;-116.858;2023-05-11T02:15:20;98184.03;;;21.48;48.57
53900;BME280;40509;32.858;-116.858;2023-05-11T02:17:48;98181.31;;;21.40;48.72
53900;BME280;40509;32.858;-116.858;2023-05-11T02:20:16;98190.00;;;21.50;49.22
53900;BME280;40509;32.858;-116.858;2023-05-11T02:22:45;98190.84;;;21.41;49.27
53900;BME280;40509;32.858;-116.858;2023-05-11T02:25:13;98202.31;;;21.40;49.31
53900;BME280;40509;32.858;-116.858;2023-05-11T02:27:41;98190.03;;;21.41;49.49
53900;BME280;40509;32.858;-116.858;2023-05-11T02:30:09;98196.78;;;21.43;49.33
53900;BME280;40509;32.858;-116.858;2023-05-11T02:32:43;98202.63;;;21.37;49.21
53900;BME280;40509;32.858;-116.858;2023-05-11T02:35:19;98196.00;;;21.33;49.35
53900;BME280;40509;32.858;-116.858;2023-05-11T02:37:48;98202.03;;;21.43;49.28
53900;BME280;40509;32.858;-116.858;2023-05-11T02:40:19;98204.13;;;21.39;49.27
53900;BME280;40509;32.858;-116.858;2023-05-11T02:42:54;98199.53;;;21.42;49.14
53900;BME280;40509;32.858;-116.858;2023-05-11T02:45:23;98199.84;;;21.38;49.18
53900;BME280;40509;32.858;-116.858;2023-05-11T02:47:55;98200.66;;;21.39;49.03
53900;BME280;40509;32.858;-116.858;2023-05-11T02:50:27;98203.16;;;21.41;48.79
53900;BME280;40509;32.858;-116.858;2023-05-11T02:53:00;98202.16;;;21.42;49.00
53900;BME280;40509;32.858;-116.858;2023-05-11T02:55:28;98206.75;;;21.39;48.94
53900;BME280;40509;32.858;-116.858;2023-05-11T02:57:57;98208.13;;;21.44;48.82
53900;BME280;40509;32.858;-116.858;2023-05-11T03:00:25;98209.38;;;21.39;48.51
53900;BME280;40509;32.858;-116.858;2023-05-11T03:02:52;98209.91;;;21.43;48.74
53900;BME280;40509;32.858;-116.858;2023-05-11T03:05:22;98207.81;;;21.47;48.74
53900;BME280;40509;32.858;-116.858;2023-05-11T03:07:54;98218.78;;;21.42;48.61
53900;BME280;40509;32.858;-116.858;2023-05-11T03:10:24;98215.84;;;21.55;48.34
53900;BME280;40509;32.858;-116.858;2023-05-11T03:12:55;98222.91;;;21.54;48.30
53900;BME280;40509;32.858;-116.858;2023-05-11T03:15:23;98222.78;;;21.46;48.25
53900;BME280;40509;32.858;-116.858;2023-05-11T03:17:53;98226.34;;;21.45;48.44
53900;BME280;40509;32.858;-116.858;2023-05-11T03:20:22;98225.41;;;21.46;48.17
53900;BME280;40509;32.858;-116.858;2023-05-11T03:22:51;98222.78;;;21.46;48.35
53900;BME280;40509;32.858;-116.858;2023-05-11T03:25:19;98219.84;;;21.49;48.61
53900;BME280;40509;32.858;-116.858;2023-05-11T03:27:49;98226.50;;;21.53;48.42
53900;BME280;40509;32.858;-116.858;2023-05-11T03:30:17;98224.94;;;21.51;48.09
53900;BME280;40509;32.858;-116.858;2023-05-11T03:32:48;98226.63;;;21.52;48.32
53900;BME280;40509;32.858;-116.858;2023-05-11T03:35:16;98226.06;;;21.48;48.12
53900;BME280;40509;32.858;-116.858;2023-05-11T03:37:44;98235.31;;;21.52;48.22
53900;BME280;40509;32.858;-116.858;2023-05-11T03:40:14;98234.78;;;21.49;48.12
53900;BME280;40509;32.858;-116.858;2023-05-11T03:42:54;98238.22;;;21.49;48.06
53900;BME280;40509;32.858;-116.858;2023-05-11T03:45:25;98231.75;;;21.53;48.02
53900;BME280;40509;32.858;-116.858;2023-05-11T03:47:55;98232.00;;;21.50;47.97
53900;BME280;40509;32.858;-116.858;2023-05-11T03:50:23;98233.78;;;21.50;47.93
53900;BME280;40509;32.858;-116.858;2023-05-11T03:52:51;98235.75;;;21.48;48.01
53900;BME280;40509;32.858;-116.858;2023-05-11T03:55:18;98232.00;;;21.50;48.28
53900;BME280;40509;32.858;-116.858;2023-05-11T03:57:47;98240.56;;;21.52;47.89
53900;BME280;40509;32.858;-116.858;2023-05-11T04:00:14;98233.78;;;21.50;47.98
53900;BME280;40509;32.858;-116.858;2023-05-11T04:02:42;98231.06;;;21.51;47.98
53900;BME280;40509;32.858;-116.858;2023-05-11T04:05:12;98228.97;;;21.45;48.04
53900;BME280;40509;32.858;-116.858;2023-05-11T04:07:41;98230.19;;;21.51;47.92
53900;BME280;40509;32.858;-116.858;2023-05-11T04:10:08;98231.88;;;21.52;48.05
53900;BME280;40509;32.858;-116.858;2023-05-11T04:12:36;98228.53;;;21.50;47.97
53900;BME280;40509;32.858;-116.858;2023-05-11T04:15:03;98233.78;;;21.50;47.99
53900;BME280;40509;32.858;-116.858;2023-05-11T04:17:30;98229.66;;;21.47;47.96
53900;BME280;40509;32.858;-116.858;2023-05-11T04:19:57;98227.03;;;21.47;47.96
53900;BME280;40509;32.858;-116.858;2023-05-11T04:22:25;98220.97;;;21.47;47.93
53900;BME280;40509;32.858;-116.858;2023-05-11T04:24:52;98224.13;;;21.50;47.83
53900;BME280;40509;32.858;-116.858;2023-05-11T04:27:19;98222.91;;;21.45;47.86
53900;BME280;40509;32.858;-116.858;2023-05-11T04:29:46;98226.34;;;21.45;47.80
53900;BME280;40509;32.858;-116.858;2023-05-11T04:32:14;98227.47;;;21.43;48.01
53900;BME280;40509;32.858;-116.858;2023-05-11T04:34:42;98228.16;;;21.45;47.86
53900;BME280;40509;32.858;-116.858;2023-05-11T04:37:10;98229.66;;;21.47;47.83
53900;BME280;40509;32.858;-116.858;2023-05-11T04:39:38;98233.94;;;21.48;47.88
53900;BME280;40509;32.858;-116.858;2023-05-11T04:42:06;98225.53;;;21.45;47.86
53900;BME280;40509;32.858;-116.858;2023-05-11T04:44:33;98221.91;;;21.46;47.85
53900;BME280;40509;32.858;-116.858;2023-05-11T04:47:00;98225.41;;;21.46;48.08
53900;BME280;40509;32.858;-116.858;2023-05-11T04:49:27;98223.03;;;21.43;48.22
53900;BME280;40509;32.858;-116.858;2023-05-11T04:51:55;98218.38;;;21.37;47.92
53900;BME280;40509;32.858;-116.858;2023-05-11T04:54:22;98219.88;;;21.39;47.88
53900;BME280;40509;32.858;-116.858;2023-05-11T04:56:50;98222.78;;;21.46;47.89
53900;BME280;40509;32.858;-116.858;2023-05-11T04:59:17;98218.88;;;21.50;47.63
53900;BME280;40509;32.858;-116.858;2023-05-11T05:01:44;98214.44;;;21.51;47.47
53900;BME280;40509;32.858;-116.858;2023-05-11T05:04:12;98214.88;;;21.46;47.79
53900;BME280;40509;32.858;-116.858;2023-05-11T05:06:39;98209.63;;;21.46;47.63
53900;BME280;40509;32.858;-116.858;2023-05-11T05:09:06;98209.09;;;21.43;47.70
53900;BME280;40509;32.858;-116.858;2023-05-11T05:11:34;98208.00;;;21.35;47.74
53900;BME280;40509;32.858;-116.858;2023-05-11T05:14:01;98215.59;;;21.38;47.63
53900;BME280;40509;32.858;-116.858;2023-05-11T05:16:29;98210.06;;;21.42;47.44
53900;BME280;40509;32.858;-116.858;2023-05-11T05:18:56;98209.22;;;21.41;47.76
53900;BME280;40509;32.858;-116.858;2023-05-11T05:21:24;98207.88;;;21.37;47.66
53900;BME280;40509;32.858;-116.858;2023-05-11T05:23:51;98201.34;;;21.41;47.62
53900;BME280;40509;32.858;-116.858;2023-05-11T05:26:18;98207.56;;;21.40;47.54
53900;BME280;40509;32.858;-116.858;2023-05-11T05:28:48;98199.03;;;21.38;47.73
53900;BME280;40509;32.858;-116.858;2023-05-11T05:31:17;98198.75;;;21.31;48.00
53900;BME280;40509;32.858;-116.858;2023-05-11T05:33:44;98200.84;;;21.28;47.76
53900;BME280;40509;32.858;-116.858;2023-05-11T05:36:11;98204.53;;;21.35;47.75
53900;BME280;40509;32.858;-116.858;2023-05-11T05:38:39;98202.50;;;21.29;47.78
53900;BME280;40509;32.858;-116.858;2023-05-11T05:41:06;98197.06;;;21.40;47.40
53900;BME280;40509;32.858;-116.858;2023-05-11T05:43:37;98201.75;;;21.36;47.35
53900;BME280;40509;32.858;-116.858;2023-05-11T05:46:04;98201.66;;;21.38;47.43
53900;BME280;40509;32.858;-116.858;2023-05-11T05:48:32;98197.38;;;21.37;47.05
53900;BME280;40509;32.858;-116.858;2023-05-11T05:50:59;98204.53;;;21.35;47.25
53900;BME280;40509;32.858;-116.858;2023-05-11T05:53:27;98201.09;;;21.34;47.31
53900;BME280;40509;32.858;-116.858;2023-05-11T05:55:55;98201.91;;;21.35;47.02
53900;BME280;40509;32.858;-116.858;2023-05-11T05:58:22;98206.50;;;21.33;47.10
53900;BME280;40509;32.858;-116.858;2023-05-11T06:00:49;98198.38;;;21.26;47.29
53900;BME280;40509;32.858;-116.858;2023-05-11T06:03:18;98202.22;;;21.32;47.00
53900;BME280;40509;32.858;-116.858;2023-05-11T06:05:45;98202.50;;;21.29;47.09
53900;BME280;40509;32.858;-116.858;2023-05-11T06:08:12;98199.72;;;21.30;46.82
53900;BME280;40509;32.858;-116.858;2023-05-11T06:10:40;98190.34;;;21.28;47.02
53900;BME280;40509;32.858;-116.858;2023-05-11T06:13:09;98194.78;;;21.27;46.76
53900;BME280;40509;32.858;-116.858;2023-05-11T06:15:37;98199.03;;;21.28;46.88
53900;BME280;40509;32.858;-116.858;2023-05-11T06:18:14;98192.97;;;21.28;47.04
53900;BME280;40509;32.858;-116.858;2023-05-11T06:20:42;98203.75;;;21.25;47.08
53900;BME280;40509;32.858;-116.858;2023-05-11T06:23:12;98191.88;;;21.20;46.99
53900;BME280;40509;32.858;-116.858;2023-05-11T06:25:41;98193.53;;;21.21;47.05
53900;BME280;40509;32.858;-116.858;2023-05-11T06:28:08;98196.44;;;21.18;46.94
53900;BME280;40509;32.858;-116.858;2023-05-11T06:30:37;98206.94;;;21.18;47.13
53900;BME280;40509;32.858;-116.858;2023-05-11T06:33:07;98210.69;;;21.16;46.82
53900;BME280;40509;32.858;-116.858;2023-05-11T06:35:37;98204.75;;;21.14;46.97
53900;BME280;40509;32.858;-116.858;2023-05-11T06:38:08;98199.50;;;21.14;46.90
53900;BME280;40509;32.858;-116.858;2023-05-11T06:40:36;98204.47;;;21.17;47.10
53900;BME280;40509;32.858;-116.858;2023-05-11T06:43:03;98202.66;;;21.17;46.94
53900;BME280;40509;32.858;-116.858;2023-05-11T06:45:44;98197.41;;;21.17;46.93
53900;BME280;40509;32.858;-116.858;2023-05-11T06:48:12;98206.81;;;21.10;46.96
53900;BME280;40509;32.858;-116.858;2023-05-11T06:50:39;98204.50;;;21.07;47.08
53900;BME280;40509;32.858;-116.858;2023-05-11T06:53:06;98201.88;;;21.07;46.82
53900;BME280;40509;32.858;-116.858;2023-05-11T06:55:36;98197.56;;;21.06;47.03
53900;BME280;40509;32.858;-116.858;2023-05-11T06:58:04;98195.91;;;21.05;47.10
53900;BME280;40509;32.858;-116.858;2023-05-11T07:00:31;98193.03;;;21.08;46.98
53900;BME280;40509;32.858;-116.858;2023-05-11T07:02:58;98195.75;;;21.06;47.10
53900;BME280;40509;32.858;-116.858;2023-05-11T07:05:25;98203.13;;;21.03;47.01
53900;BME280;40509;32.858;-116.858;2023-05-11T07:07:53;98191.38;;;21.07;46.94
53900;BME280;40509;32.858;-116.858;2023-05-11T07:10:20;98188.03;;;21.05;46.89
53900;BME280;40509;32.858;-116.858;2023-05-11T07:12:48;98192.47;;;21.04;46.70
53900;BME280;40509;32.858;-116.858;2023-05-11T07:15:15;98184.31;;;21.08;46.75
53900;BME280;40509;32.858;-116.858;2023-05-11T07:17:42;98180.16;;;21.05;46.88
53900;BME280;40509;32.858;-116.858;2023-05-11T07:20:13;98182.66;;;21.06;46.32
53900;BME280;40509;32.858;-116.858;2023-05-11T07:22:49;98180.31;;;21.03;46.85
53900;BME280;40509;32.858;-116.858;2023-05-11T07:25:16;98168.72;;;21.06;46.73
53900;BME280;40509;32.858;-116.858;2023-05-11T07:27:43;98176.31;;;20.99;46.76
53900;BME280;40509;32.858;-116.858;2023-05-11T07:30:11;98159.59;;;21.00;47.24
53900;BME280;40509;32.858;-116.858;2023-05-11T07:32:38;98166.09;;;21.06;46.87
53900;BME280;40509;32.858;-116.858;2023-05-11T07:35:05;98150.78;;;21.01;47.04
53900;BME280;40509;32.858;-116.858;2023-05-11T07:37:33;98151.88;;;20.99;47.06
53900;BME280;40509;32.858;-116.858;2023-05-11T07:40:00;98152.16;;;20.96;47.10
53900;BME280;40509;32.858;-116.858;2023-05-11T07:48:35;98148.69;;;20.95;46.94
53900;BME280;40509;32.858;-116.858;2023-05-11T07:51:03;98149.53;;;20.96;46.82
53900;BME280;40509;32.858;-116.858;2023-05-11T07:53:33;98150.78;;;20.92;47.18
53900;BME280;40509;32.858;-116.858;2023-05-11T07:56:01;98145.53;;;20.92;47.38
53900;BME280;40509;32.858;-116.858;2023-05-11T07:58:29;98137.78;;;20.90;47.17
53900;BME280;40509;32.858;-116.858;2023-05-11T08:00:57;98139.47;;;20.91;46.93
53900;BME280;40509;32.858;-116.858;2023-05-11T08:03:24;98138.78;;;20.89;47.39
53900;BME280;40509;32.858;-116.858;2023-05-11T08:05:51;98140.28;;;20.92;46.98
53900;BME280;40509;32.858;-116.858;2023-05-11T08:08:19;98138.91;;;20.87;47.31
53900;BME280;40509;32.858;-116.858;2023-05-11T08:10:46;98138.91;;;20.87;47.11
53900;BME280;40509;32.858;-116.858;2023-05-11T08:13:13;98141.97;;;20.83;47.38
53900;BME280;40509;32.858;-116.858;2023-05-11T08:15:41;98130.38;;;20.85;46.99
53900;BME280;40509;32.858;-116.858;2023-05-11T08:18:08;98137.28;;;20.86;46.93
53900;BME280;40509;32.858;-116.858;2023-05-11T08:20:35;98131.31;;;20.84;47.11
53900;BME280;40509;32.858;-116.858;2023-05-11T08:23:03;98138.53;;;20.82;47.40
53900;BME280;40509;32.858;-116.858;2023-05-11T08:25:30;98136.88;;;20.81;47.38
53900;BME280;40509;32.858;-116.858;2023-05-11T08:27:57;98130.50;;;20.84;47.39
53900;BME280;40509;32.858;-116.858;2023-05-11T08:30:24;98128.84;;;20.83;47.41
53900;BME280;40509;32.858;-116.858;2023-05-11T08:32:52;98131.63;;;20.81;47.53
53900;BME280;40509;32.858;-116.858;2023-05-11T08:35:19;98130.66;;;20.82;47.26
53900;BME280;40509;32.858;-116.858;2023-05-11T08:37:46;98134.25;;;20.81;47.08
53900;BME280;40509;32.858;-116.858;2023-05-11T08:40:14;98130.91;;;20.79;47.37
53900;BME280;40509;32.858;-116.858;2023-05-11T08:42:45;98131.06;;;20.78;47.33
53900;BME280;40509;32.858;-116.858;2023-05-11T08:45:16;98136.44;;;20.76;47.38
53900;BME280;40509;32.858;-116.858;2023-05-11T08:47:44;98132.16;;;20.75;47.43
53900;BME280;40509;32.858;-116.858;2023-05-11T08:50:11;98125.97;;;20.76;47.39
53900;BME280;40509;32.858;-116.858;2023-05-11T08:52:39;98125.66;;;20.79;47.26
53900;BME280;40509;32.858;-116.858;2023-05-11T08:55:08;98123.19;;;20.78;47.38
53900;BME280;40509;32.858;-116.858;2023-05-11T08:57:35;98117.94;;;20.78;47.26
53900;BME280;40509;32.858;-116.858;2023-05-11T09:00:04;98115.47;;;20.76;47.23
53900;BME280;40509;32.858;-116.858;2023-05-11T09:02:33;98118.22;;;20.75;47.59
53900;BME280;40509;32.858;-116.858;2023-05-11T09:05:01;98126.91;;;20.75;47.58
53900;BME280;40509;32.858;-116.858;2023-05-11T09:07:30;98119.06;;;20.75;47.32
53900;BME280;40509;32.858;-116.858;2023-05-11T09:09:57;98120.03;;;20.74;47.35
53900;BME280;40509;32.858;-116.858;2023-05-11T09:12:25;98116.00;;;20.70;47.57
53900;BME280;40509;32.858;-116.858;2023-05-11T09:14:54;98116.00;;;20.70;47.34
53900;BME280;40509;32.858;-116.858;2023-05-11T09:17:22;98115.19;;;20.69;47.38
53900;BME280;40509;32.858;-116.858;2023-05-11T09:19:59;98109.13;;;20.69;47.34
53900;BME280;40509;32.858;-116.858;2023-05-11T09:22:27;98109.81;;;20.71;47.25
53900;BME280;40509;32.858;-116.858;2023-05-11T09:24:54;98108.28;;;20.68;47.68
53900;BME280;40509;32.858;-116.858;2023-05-11T09:27:23;98106.53;;;20.69;47.31
53900;BME280;40509;32.858;-116.858;2023-05-11T09:29:53;98105.41;;;20.71;47.41
53900;BME280;40509;32.858;-116.858;2023-05-11T09:32:20;98109.13;;;20.69;47.47
53900;BME280;40509;32.858;-116.858;2023-05-11T09:34:47;98104.28;;;20.64;47.30
53900;BME280;40509;32.858;-116.858;2023-05-11T09:37:17;98102.34;;;20.66;47.56
53900;BME280;40509;32.858;-116.858;2023-05-11T09:39:44;98097.81;;;20.68;47.58
53900;BME280;40509;32.858;-116.858;2023-05-11T09:42:19;98101.38;;;20.67;47.59
53900;BME280;40509;32.858;-116.858;2023-05-11T09:44:47;98092.00;;;20.65;47.54
53900;BME280;40509;32.858;-116.858;2023-05-11T09:47:19;98092.16;;;20.63;47.62
53900;BME280;40509;32.858;-116.858;2023-05-11T09:49:48;98088.69;;;20.63;47.47
53900;BME280;40509;32.858;-116.858;2023-05-11T09:52:17;98093.41;;;20.59;47.52
53900;BME280;40509;32.858;-116.858;2023-05-11T09:54:46;98092.41;;;20.60;47.59
53900;BME280;40509;32.858;-116.858;2023-05-11T09:57:26;98086.34;;;20.60;47.33
53900;BME280;40509;32.858;-116.858;2023-05-11T09:59:55;98075.84;;;20.60;47.47
53900;BME280;40509;32.858;-116.858;2023-05-11T10:02:30;98074.91;;;20.61;47.44
53900;BME280;40509;32.858;-116.858;2023-05-11T10:04:59;98081.78;;;20.62;47.48
53900;BME280;40509;32.858;-116.858;2023-05-11T10:07:30;98073.22;;;20.60;47.37
53900;BME280;40509;32.858;-116.858;2023-05-11T10:10:00;98081.91;;;20.60;47.22
53900;BME280;40509;32.858;-116.858;2023-05-11T10:12:29;98081.50;;;20.55;47.27
53900;BME280;40509;32.858;-116.858;2023-05-11T10:15:04;98076.00;;;20.58;47.39
53900;BME280;40509;32.858;-116.858;2023-05-11T10:17:33;98076.56;;;20.52;47.78
53900;BME280;40509;32.858;-116.858;2023-05-11T10:20:02;98072.69;;;20.56;47.60
53900;BME280;40509;32.858;-116.858;2023-05-11T10:22:30;98078.06;;;20.54;47.22
53900;BME280;40509;32.858;-116.858;2023-05-11T10:28:21;98073.63;;;20.55;47.55
53900;BME280;40509;32.858;-116.858;2023-05-11T10:34:30;98063.16;;;20.55;47.29
53900;BME280;40509;32.858;-116.858;2023-05-11T10:37:16;98069.53;;;20.52;47.38
53900;BME280;40509;32.858;-116.858;2023-05-11T10:39:45;98075.44;;;20.54;47.29
53900;BME280;40509;32.858;-116.858;2023-05-11T10:45:13;98066.22;;;20.50;47.39
53900;BME280;40509;32.858;-116.858;2023-05-11T10:51:23;98066.91;;;20.52;47.28
53900;BME280;40509;32.858;-116.858;2023-05-11T10:54:03;98061.50;;;20.44;47.53
53900;BME280;40509;32.858;-116.858;2023-05-11T10:57:04;98061.50;;;20.44;47.18
53900;BME280;40509;32.858;-116.858;2023-05-11T11:02:16;98052.44;;;20.48;47.32
53900;BME280;40509;32.858;-116.858;2023-05-11T11:04:47;98059.31;;;20.49;47.22
53900;BME280;40509;32.858;-116.858;2023-05-11T11:07:16;98053.38;;;20.47;47.40
53900;BME280;40509;32.858;-116.858;2023-05-11T11:09:53;98052.28;;;20.40;47.38
53900;BME280;40509;32.858;-116.858;2023-05-11T11:12:26;98056.28;;;20.44;47.28
53900;BME280;40509;32.858;-116.858;2023-05-11T11:15:02;98056.69;;;20.39;47.28
53900;BME280;40509;32.858;-116.858;2023-05-11T11:17:33;98061.13;;;20.39;47.32
53900;BME280;40509;32.858;-116.858;2023-05-11T11:20:05;98061.13;;;20.39;47.29
53900;BME280;40509;32.858;-116.858;2023-05-11T11:25:05;98057.53;;;20.40;47.16
53900;BME280;40509;32.858;-116.858;2023-05-11T11:27:54;98051.59;;;20.38;47.42
53900;BME280;40509;32.858;-116.858;2023-05-11T11:30:28;98048.84;;;20.39;47.27
53900;BME280;40509;32.858;-116.858;2023-05-11T11:38:15;98048.28;;;20.36;47.18
53900;BME280;40509;32.858;-116.858;2023-05-11T11:40:47;98044.03;;;20.35;47.46
53900;BME280;40509;32.858;-116.858;2023-05-11T11:43:23;98043.31;;;20.33;47.32
53900;BME280;40509;32.858;-116.858;2023-05-11T11:46:01;98047.59;;;20.34;47.41
53900;BME280;40509;32.858;-116.858;2023-05-11T11:48:30;98045.94;;;20.33;47.48
53900;BME280;40509;32.858;-116.858;2023-05-11T11:51:12;98046.78;;;20.33;47.59
53900;BME280;40509;32.858;-116.858;2023-05-11T11:58:59;98048.16;;;20.37;47.52
53900;BME280;40509;32.858;-116.858;2023-05-11T12:01:34;98052.56;;;20.37;47.27
53900;BME280;40509;32.858;-116.858;2023-05-11T12:06:45;98052.03;;;20.33;47.15
53900;BME280;40509;32.858;-116.858;2023-05-11T12:09:21;98051.19;;;20.33;47.55
53900;BME280;40509;32.858;-116.858;2023-05-11T12:11:49;98062.78;;;20.30;47.28
53900;BME280;40509;32.858;-116.858;2023-05-11T12:14:17;98058.38;;;20.31;47.38
53900;BME280;40509;32.858;-116.858;2023-05-11T12:17:03;98065.84;;;20.26;47.33
53900;BME280;40509;32.858;-116.858;2023-05-11T12:19:30;98068.47;;;20.26;47.46
53900;BME280;40509;32.858;-116.858;2023-05-11T12:21:57;98062.09;;;20.28;47.17
53900;BME280;40509;32.858;-116.858;2023-05-11T12:24:25;98050.78;;;20.28;47.32
53900;BME280;40509;32.858;-116.858;2023-05-11T12:26:54;98056.03;;;20.28;47.49
53900;BME280;40509;32.858;-116.858;2023-05-11T12:29:23;98056.16;;;20.26;47.23
53900;BME280;40509;32.858;-116.858;2023-05-11T12:31:50;98058.66;;;20.28;47.56
53900;BME280;40509;32.858;-116.858;2023-05-11T12:34:19;98052.72;;;20.26;47.41
53900;BME280;40509;32.858;-116.858;2023-05-11T12:36:54;98064.16;;;20.25;47.32
53900;BME280;40509;32.858;-116.858;2023-05-11T12:39:25;98056.44;;;20.23;47.71
53900;BME280;40509;32.858;-116.858;2023-05-11T12:41:55;98060.72;;;20.24;47.26
53900;BME280;40509;32.858;-116.858;2023-05-11T12:44:24;98064.47;;;20.21;47.57
53900;BME280;40509;32.858;-116.858;2023-05-11T12:46:52;98073.00;;;20.24;47.16
53900;BME280;40509;32.858;-116.858;2023-05-11T12:49:22;98064.47;;;20.21;47.56
53900;BME280;40509;32.858;-116.858;2023-05-11T12:51:59;98065.13;;;20.24;47.41
53900;BME280;40509;32.858;-116.858;2023-05-11T12:54:28;98070.66;;;20.20;47.64
53900;BME280;40509;32.858;-116.858;2023-05-11T12:56:55;98061.69;;;20.23;47.47
53900;BME280;40509;32.858;-116.858;2023-05-11T12:59:43;98058.94;;;20.25;47.16
53900;BME280;40509;32.858;-116.858;2023-05-11T13:02:18;98067.75;;;20.24;47.14
53900;BME280;40509;32.858;-116.858;2023-05-11T13:04:47;98076.47;;;20.24;47.41
53900;BME280;40509;32.858;-116.858;2023-05-11T13:07:26;98076.03;;;20.19;47.30
53900;BME280;40509;32.858;-116.858;2023-05-11T13:09:58;98074.94;;;20.21;47.15
53900;BME280;40509;32.858;-116.858;2023-05-11T13:12:26;98084.31;;;20.14;47.22
53900;BME280;40509;32.858;-116.858;2023-05-11T13:15:09;98080.72;;;20.15;47.39
53900;BME280;40509;32.858;-116.858;2023-05-11T13:17:41;98085.72;;;20.18;47.33
53900;BME280;40509;32.858;-116.858;2023-05-11T13:20:16;98080.59;;;20.17;47.60
53900;BME280;40509;32.858;-116.858;2023-05-11T13:22:44;98077.44;;;20.13;47.40
53900;BME280;40509;32.858;-116.858;2023-05-11T13:25:14;98084.19;;;20.16;47.58
53900;BME280;40509;32.858;-116.858;2023-05-11T13:27:41;98084.44;;;20.13;47.67